Home   Weather   Netherlands   Oss   Past weeks
Flag for Netherlands

Past Weather in Oss, Netherlands — Yesterday and Last 2 Weeks

Currently: 73 °F. Thunderstorms. More clouds than sun. (Weather station: Volkel, Netherlands). See more current weather

Past Weather in Oss — Graph

°F

Oss Temperature Yesterday

Maximum temperature yesterday: 84 °F (at 12:55 pm)
Minimum temperature yesterday: 63 °F (at 3:55 am)
Average temperature yesterday: 74 °F

High & Low Weather Summary for the Past Weeks

 TemperatureHumidityPressure
High88 °F (Jul 20, 2:25 pm)100% (Jul 8, 1:55 am)30.21 "Hg (Jul 8, 1:55 am)
Low50 °F (Jul 7, 3:25 am)42% (Jul 15, 2:55 pm)29.50 "Hg (Jul 6, 8:25 am)
Average65 °F78%29.92 "Hg
* Reported Jul 5 6:25 pm — Jul 20 6:57 pm, Oss. Weather by CustomWeather, © 2024

Note: Actual official high and low records may vary slightly from our data, if they occured in-between our weather recording intervals... More about our weather records

Oss Weather History for the Previous 24 Hours

Scroll right to see more
 ConditionsComfort  
Time TempWeatherWind HumidityBarometerVisibility
6:57 pm
Sat, Jul 20
86 °FThunderstorms. Overcast.5 mph46%29.71 "HgN/A
6:25 pm88 °FMostly cloudy.5 mph43%29.71 "HgN/A
5:55 pm88 °FMostly cloudy.6 mph43%29.71 "HgN/A
5:25 pm88 °FOvercast.5 mph43%29.71 "HgN/A
4:55 pm86 °FOvercast.5 mph43%29.74 "HgN/A
4:25 pm88 °FHigh level clouds.6 mph43%29.74 "HgN/A
3:55 pm86 °FHigh level clouds.3 mph43%29.74 "HgN/A
2:55 pm88 °FOvercast.7 mph43%29.77 "HgN/A
2:25 pm88 °FScattered clouds.3 mph43%29.77 "HgN/A
1:55 pm86 °FOvercast.5 mph46%29.77 "HgN/A
1:25 pm86 °FClear.6 mph46%29.80 "HgN/A
12:55 pm84 °FClear.7 mph48%29.80 "HgN/A
12:25 pm84 °FClear.5 mph51%29.80 "HgN/A
11:55 am82 °FClear.6 mph51%29.80 "HgN/A
11:25 am82 °FClear.7 mph55%29.83 "HgN/A
10:55 am81 °FClear.6 mph58%29.83 "HgN/A
10:25 am79 °FClear.5 mph58%29.83 "HgN/A
9:25 am75 °FClear.3 mph69%29.86 "HgN/A
8:55 am72 °FClear.3 mph78%29.86 "HgN/A
8:25 am70 °FPassing clouds.3 mph78%29.86 "HgN/A
7:55 am68 °FClear.3 mph83%29.86 "HgN/A
7:25 am66 °FClear.2 mph88%29.86 "HgN/A
6:55 am63 °FClear.2 mph94%29.86 "HgN/A
6:25 am61 °FClear.3 mph94%29.89 "HgN/A
5:55 am63 °FClear.2 mph88%29.89 "HgN/A
5:25 am61 °FClear.2 mph94%29.89 "HgN/A
5:05 am61 °FClear.3 mph94%29.89 "HgN/A
4:55 am61 °FLight rain. Clear.3 mph94%29.89 "HgN/A
4:25 am61 °FClear.2 mph94%29.92 "HgN/A
3:55 am61 °FClear.1 mph94%29.92 "HgN/A
3:25 am63 °FClear.2 mph88%29.92 "HgN/A
2:55 am64 °FClear.2 mph88%29.92 "HgN/A
2:25 am64 °FClear.2 mph88%29.95 "HgN/A
1:55 am66 °FClear.2 mph83%29.95 "HgN/A
1:25 am64 °FClear.5 mph83%29.95 "HgN/A
12:55 am66 °FClear.3 mph78%29.98 "HgN/A
12:25 am66 °FClear.3 mph83%29.98 "HgN/A
11:55 pm
Fri, Jul 19
68 °FClear.2 mph83%29.98 "HgN/A
11:25 pm70 °FClear.3 mph73%29.98 "HgN/A
10:55 pm70 °FClear.3 mph73%29.98 "HgN/A
10:29 pm72 °FHeavy rain. Clear.3 mph69%29.98 "Hg5 mi
9:55 pm73 °FClear.5 mph65%29.98 "HgN/A
8:55 pm77 °FClear.6 mph57%29.98 "HgN/A
8:25 pm79 °FOvercast.6 mph54%29.98 "HgN/A
Weather by CustomWeather, © 2024

See weather overview